KBIF/BIF METAR and TAF weather

Enter ICAO airport designator
Station Type Date Time Source
KBIF METAR 2019/12/10 02:58 UTC NOAA

KBIF 100258Z AUTO 07004KT 10SM CLR 06/05 A3001 RMK AO2 SLP142 T00630053 50008 $


Station Type Date Time Source
KBIF Decoded METAR 2019/12/10 02:58 UTC NOAA

Biggs Army Air Field / Ft. Bliss, TX, United States (KBIF) 31-51N 106-23W
Dec 09, 2019 - 09:58 PM EST / 2019.12.10 0258 UTC
Wind: from the ENE (070 degrees) at 5 MPH (4 KT):0
Visibility: 10 mile(s):0
Sky conditions: clear
Temperature: 43.3 F (6.3 C)
Dew Point: 41.5 F (5.3 C)
Relative Humidity: 93%
Pressure (altimeter): 30.01 in. Hg (1016 hPa)
Pressure tendency: 0.02 inches (0.8 hPa) higher than three hours ago
ob: KBIF 100258Z AUTO 07004KT 10SM CLR 06/05 A3001 RMK AO2 SLP142 T00630053 50008
cycle: 3

Station Type Date Time Source
KBIF TAF 2019/12/09 22:08 UTC NOAA

TAF
AMD KBIF 0822/1004 26012G20KT 9999 -SHRA BKN060 OVC100 QNH2996INS
BECMG 0908/0909 25012KT 8000 RA BKN010 QNH2996INS
BECMG 0919/0920 26012G20KT 8000 -SHRA BKN015 QNH2992INS TX20/0822Z TN06/0912Z

Example: see airport list